createdAt,value
2019-02-12T00:01:57.759Z,59.64
2019-02-12T00:04:27.397Z,59.67
2019-02-12T00:06:58.201Z,59.42
2019-02-12T00:09:28.258Z,59.15
2019-02-12T00:11:57.736Z,58.80
2019-02-12T00:14:27.586Z,58.53
2019-02-12T00:16:57.871Z,58.55
2019-02-12T00:19:27.664Z,58.29
2019-02-12T00:21:58.040Z,58.62
2019-02-12T00:24:28.220Z,58.72
2019-02-12T00:26:58.017Z,58.86
2019-02-12T00:29:28.064Z,58.51
2019-02-12T00:31:58.348Z,58.52
2019-02-12T00:34:29.103Z,58.17
2019-02-12T00:36:58.847Z,57.32
2019-02-12T00:39:28.564Z,57.27
2019-02-12T00:41:58.779Z,57.31
2019-02-12T00:44:28.705Z,56.90
2019-02-12T00:46:58.751Z,56.88
2019-02-12T00:49:28.612Z,56.63
2019-02-12T00:51:58.375Z,56.77
2019-02-12T00:54:28.888Z,56.66
2019-02-12T00:56:58.971Z,56.60
2019-02-12T00:59:28.964Z,56.46
2019-02-12T01:01:58.770Z,56.67
2019-02-12T01:04:29.336Z,56.34
2019-02-12T01:06:59.291Z,55.95
2019-02-12T01:09:29.253Z,55.95
2019-02-12T01:11:58.746Z,56.04
2019-02-12T01:14:28.735Z,56.04
2019-02-12T01:16:59.075Z,56.02
2019-02-12T01:19:29.339Z,56.10
2019-02-12T01:21:59.133Z,55.94
2019-02-12T01:24:28.892Z,55.89
2019-02-12T01:26:58.984Z,55.95
2019-02-12T01:29:29.456Z,56.08
2019-02-12T01:31:59.312Z,55.74
2019-02-12T01:34:29.589Z,55.71
2019-02-12T01:36:59.396Z,55.76
2019-02-12T01:39:29.623Z,55.78
2019-02-12T01:41:59.518Z,55.76
2019-02-12T01:44:29.558Z,55.92
2019-02-12T01:46:59.537Z,55.54
2019-02-12T01:49:29.574Z,55.72
2019-02-12T01:51:59.764Z,55.85
2019-02-12T01:54:29.886Z,55.72
2019-02-12T01:56:59.506Z,55.84
2019-02-12T01:59:30.132Z,55.58
2019-02-12T02:02:00.369Z,55.08
2019-02-12T02:04:30.350Z,55.27
2019-02-12T02:07:00.307Z,55.34
2019-02-12T02:09:30.290Z,55.33
2019-02-12T02:12:00.306Z,55.57
2019-02-12T02:14:30.971Z,55.58
2019-02-12T02:17:01.053Z,55.63
2019-02-12T02:19:30.768Z,55.53
2019-02-12T02:22:00.498Z,55.56
2019-02-12T02:24:30.532Z,55.53
2019-02-12T02:27:00.787Z,56.00
2019-02-12T02:29:30.735Z,56.24
2019-02-12T02:32:00.866Z,56.15
2019-02-12T02:34:30.879Z,56.29
2019-02-12T02:37:00.841Z,56.61
2019-02-12T02:39:31.599Z,56.54
2019-02-12T02:42:01.110Z,56.69
2019-02-12T02:44:31.053Z,56.74
2019-02-12T02:47:00.891Z,57.04
2019-02-12T02:49:30.918Z,57.20
2019-02-12T02:52:01.166Z,57.50
2019-02-12T02:54:31.455Z,57.87
2019-02-12T02:57:01.276Z,57.97
2019-02-12T02:59:31.246Z,58.21
2019-02-12T03:02:01.830Z,58.34
2019-02-12T03:04:31.562Z,58.37
2019-02-12T03:07:03.957Z,58.63
2019-02-12T03:09:34.179Z,58.71
2019-02-12T03:12:03.724Z,58.79
2019-02-12T03:14:33.546Z,58.99
2019-02-12T03:17:03.745Z,59.64
2019-02-12T03:19:33.253Z,59.57
2019-02-12T03:22:04.021Z,59.78
2019-02-12T03:24:34.099Z,60.11
2019-02-12T03:27:03.655Z,60.33
2019-02-12T03:29:33.213Z,61.00
2019-02-12T03:32:02.739Z,61.61
2019-02-12T03:34:32.218Z,63.27
2019-02-12T03:37:02.111Z,65.56
2019-02-12T03:39:31.956Z,67.70
2019-02-12T03:42:02.732Z,68.52
2019-02-12T03:44:32.287Z,69.06
2019-02-12T03:47:02.026Z,69.44
2019-02-12T03:49:32.352Z,69.55
2019-02-12T03:52:02.149Z,69.53
2019-02-12T03:54:32.473Z,69.51
2019-02-12T03:57:02.298Z,69.45
2019-02-12T03:59:32.288Z,69.53
2019-02-12T04:02:02.349Z,69.52
2019-02-12T04:04:33.213Z,69.40
2019-02-12T04:07:03.003Z,69.04
2019-02-12T04:09:32.733Z,68.78
2019-02-12T04:12:02.640Z,68.15
2019-02-12T04:14:33.467Z,68.31
2019-02-12T04:17:03.227Z,68.42
2019-02-12T04:19:32.703Z,68.06
2019-02-12T04:22:03.396Z,67.98
2019-02-12T04:24:33.244Z,67.81
2019-02-12T04:27:02.997Z,67.16
2019-02-12T04:29:32.804Z,67.19
2019-02-12T04:32:03.099Z,66.96
2019-02-12T04:34:32.872Z,66.81
2019-02-12T04:37:02.924Z,66.70
2019-02-12T04:39:33.237Z,66.68
2019-02-12T04:42:03.012Z,66.30
2019-02-12T04:44:33.111Z,66.25
2019-02-12T04:47:03.340Z,66.08
2019-02-12T04:49:33.136Z,66.18
2019-02-12T04:52:03.433Z,65.94
2019-02-12T04:54:33.355Z,66.12
2019-02-12T04:57:03.282Z,66.13
2019-02-12T04:59:33.708Z,66.52
2019-02-12T05:02:03.453Z,66.26
2019-02-12T05:04:33.377Z,66.51
2019-02-12T05:07:03.738Z,66.36
2019-02-12T05:09:34.323Z,66.24
2019-02-12T05:12:06.088Z,66.49
2019-02-12T05:14:35.715Z,66.41
2019-02-12T05:17:05.242Z,66.75
2019-02-12T05:19:34.838Z,66.71
2019-02-12T05:22:04.416Z,66.65
2019-02-12T05:24:34.153Z,66.77
2019-02-12T05:27:04.512Z,66.70
2019-02-12T05:29:34.039Z,66.82
2019-02-12T05:32:03.995Z,66.79
2019-02-12T05:34:34.258Z,66.62
2019-02-12T05:37:04.657Z,66.85
2019-02-12T05:39:34.637Z,67.08
2019-02-12T05:42:05.273Z,67.00
2019-02-12T05:44:36.476Z,67.01
2019-02-12T05:47:07.787Z,67.09
2019-02-12T05:49:37.907Z,67.13
2019-02-12T05:52:08.274Z,67.14
2019-02-12T05:54:37.993Z,67.12
2019-02-12T05:57:07.730Z,67.27
2019-02-12T05:59:37.810Z,67.17
2019-02-12T06:02:07.708Z,67.21
2019-02-12T06:04:37.294Z,67.22
2019-02-12T06:07:06.836Z,67.57
2019-02-12T06:09:36.557Z,67.58
2019-02-12T06:12:06.042Z,67.81
2019-02-12T06:14:35.521Z,67.87
2019-02-12T06:17:05.067Z,67.77
2019-02-12T06:19:35.069Z,67.69
2019-02-12T06:22:04.850Z,67.58
2019-02-12T06:24:35.015Z,67.31
2019-02-12T06:27:04.933Z,67.37
2019-02-12T06:29:34.890Z,67.56
2019-02-12T06:32:05.192Z,67.29
2019-02-12T06:34:35.481Z,67.04
2019-02-12T06:37:05.103Z,66.99
2019-02-12T06:39:35.541Z,67.02
2019-02-12T06:42:05.256Z,66.51
2019-02-12T06:44:35.696Z,66.83
2019-02-12T06:47:05.254Z,66.64
2019-02-12T06:49:35.294Z,66.71
2019-02-12T06:52:05.799Z,66.91
2019-02-12T06:54:35.498Z,66.94
2019-02-12T06:57:05.395Z,66.80
2019-02-12T06:59:35.511Z,66.86
2019-02-12T07:02:41.958Z,66.87
2019-02-12T07:05:11.436Z,66.79
2019-02-12T07:08:33.877Z,67.05
2019-02-12T07:11:21.819Z,67.07
2019-02-12T07:14:02.646Z,67.12
2019-02-12T07:16:52.967Z,67.02
2019-02-12T07:19:36.025Z,66.86
2019-02-12T07:22:46.435Z,66.82
2019-02-12T07:25:42.325Z,66.89
2019-02-12T07:28:45.345Z,66.86
2019-02-12T07:31:50.839Z,66.98
2019-02-12T07:34:55.245Z,66.68
2019-02-12T07:37:38.230Z,66.65
2019-02-12T07:40:53.176Z,66.49
2019-02-12T07:43:54.773Z,66.75
2019-02-12T07:47:23.667Z,66.59
2019-02-12T07:50:32.189Z,66.99
2019-02-12T07:53:31.221Z,67.09
2019-02-12T07:56:55.236Z,66.49
2019-02-12T07:59:45.912Z,66.49
2019-02-12T08:02:52.795Z,66.17
2019-02-12T08:06:16.196Z,66.14
2019-02-12T08:09:21.180Z,65.79
2019-02-12T08:12:02.326Z,65.75
2019-02-12T08:15:03.038Z,65.42
2019-02-12T08:18:07.876Z,65.30
2019-02-12T08:21:04.659Z,65.10
2019-02-12T08:24:04.724Z,65.15
2019-02-12T08:26:59.581Z,65.08
2019-02-12T08:30:12.539Z,64.69
2019-02-12T08:33:15.793Z,64.71
2019-02-12T08:35:57.763Z,64.66
2019-02-12T08:39:07.849Z,64.75
2019-02-12T08:42:09.938Z,64.95
2019-02-12T08:45:11.052Z,65.13
2019-02-12T08:48:07.389Z,64.89
2019-02-12T08:50:55.171Z,65.16
2019-02-12T08:53:33.460Z,65.75
2019-02-12T08:56:41.245Z,66.26
2019-02-12T08:59:31.560Z,66.69
2019-02-12T09:02:41.470Z,66.08
2019-02-12T09:05:48.963Z,65.96
2019-02-12T09:08:46.318Z,65.81
2019-02-12T09:11:52.832Z,65.41
2019-02-12T09:15:11.986Z,65.64
2019-02-12T09:18:16.042Z,65.52
2019-02-12T09:20:55.851Z,65.86
2019-02-12T09:24:07.414Z,65.61
2019-02-12T09:27:06.122Z,65.93
2019-02-12T09:30:01.887Z,65.88
2019-02-12T09:33:04.701Z,65.45
2019-02-12T09:36:07.437Z,64.88
2019-02-12T09:39:14.252Z,64.35
2019-02-12T09:42:19.577Z,64.25
2019-02-12T09:45:17.843Z,64.58
2019-02-12T09:48:05.986Z,64.79
2019-02-12T09:51:00.800Z,63.97
2019-02-12T09:54:17.797Z,62.70
2019-02-12T09:56:58.879Z,63.60
2019-02-12T10:00:02.422Z,61.49
2019-02-12T10:02:54.843Z,61.43
2019-02-12T10:05:56.540Z,60.69
2019-02-12T10:09:17.913Z,60.27
2019-02-12T10:12:15.652Z,61.95
2019-02-12T10:15:37.738Z,61.40
2019-02-12T10:18:29.595Z,61.61
2019-02-12T10:21:24.777Z,61.29
2019-02-12T10:24:31.380Z,61.93
2019-02-12T10:27:16.403Z,61.78
2019-02-12T10:30:09.976Z,61.84
2019-02-12T10:32:38.516Z,61.85
2019-02-12T10:35:08.087Z,61.82
2019-02-12T10:37:38.204Z,61.17
2019-02-12T10:40:07.754Z,60.12
2019-02-12T10:42:37.850Z,60.34
2019-02-12T10:45:07.546Z,59.41
2019-02-12T10:47:37.296Z,58.77
2019-02-12T10:50:06.930Z,57.88
2019-02-12T10:52:36.442Z,57.26
2019-02-12T10:55:06.212Z,58.24
2019-02-12T10:57:35.728Z,57.72
2019-02-12T11:00:08.527Z,57.65
2019-02-12T11:02:38.917Z,57.66
2019-02-12T11:05:08.420Z,57.93
2019-02-12T11:07:37.946Z,57.95
2019-02-12T11:10:08.040Z,58.25
2019-02-12T11:12:37.804Z,57.70
2019-02-12T11:15:07.776Z,55.96
2019-02-12T11:17:37.287Z,55.41
2019-02-12T11:20:07.273Z,55.45
2019-02-12T11:22:36.766Z,54.27
2019-02-12T11:25:06.452Z,53.99
2019-02-12T11:27:35.922Z,53.39
2019-02-12T11:30:06.795Z,53.42
2019-02-12T11:32:36.741Z,50.79
2019-02-12T11:35:06.641Z,50.79
2019-02-12T11:37:36.211Z,50.96
2019-02-12T11:40:06.891Z,51.77
2019-02-12T11:42:36.416Z,51.11
2019-02-12T11:45:07.386Z,52.28
2019-02-12T11:47:36.921Z,52.27
2019-02-12T11:50:07.288Z,52.85
2019-02-12T11:52:36.840Z,52.15
2019-02-12T11:55:07.178Z,51.11
2019-02-12T11:57:36.906Z,51.12
2019-02-12T12:00:09.026Z,52.24
2019-02-12T12:02:42.014Z,52.69
2019-02-12T12:05:10.419Z,52.96
2019-02-12T12:07:40.508Z,53.09
2019-02-12T12:10:11.440Z,51.62
2019-02-12T12:12:41.735Z,52.47
2019-02-12T12:15:11.605Z,52.87
2019-02-12T12:17:41.506Z,52.68
2019-02-12T12:20:12.728Z,52.42
2019-02-12T12:22:42.314Z,52.16
2019-02-12T12:25:12.181Z,52.40
2019-02-12T12:27:41.686Z,52.44
2019-02-12T12:30:11.969Z,50.90
2019-02-12T12:32:42.116Z,50.81
2019-02-12T12:35:11.923Z,50.31
2019-02-12T12:37:42.084Z,49.84
2019-02-12T12:40:12.192Z,48.66
2019-02-12T12:42:42.160Z,47.57
2019-02-12T12:45:12.114Z,47.71
2019-02-12T12:47:42.316Z,48.01
2019-02-12T12:50:12.085Z,48.24
2019-02-12T12:52:42.110Z,48.48
2019-02-12T12:55:12.095Z,47.83
2019-02-12T12:57:42.408Z,48.32
2019-02-12T13:00:12.690Z,47.98
2019-02-12T13:02:42.216Z,48.74
2019-02-12T13:05:12.457Z,48.81
2019-02-12T13:07:42.496Z,49.14
2019-02-12T13:10:14.166Z,50.42
2019-02-12T13:12:44.049Z,50.64
2019-02-12T13:15:13.667Z,50.20
2019-02-12T13:17:43.274Z,50.82
2019-02-12T13:20:13.695Z,50.80
2019-02-12T13:22:43.691Z,50.58
2019-02-12T13:25:13.338Z,50.61
2019-02-12T13:27:42.822Z,50.26
2019-02-12T13:30:15.044Z,50.23
2019-02-12T13:32:44.778Z,49.93
2019-02-12T13:35:15.856Z,49.62
2019-02-12T13:37:47.339Z,50.07
2019-02-12T13:40:16.852Z,49.59
2019-02-12T13:42:47.253Z,49.70
2019-02-12T13:45:17.830Z,48.40
2019-02-12T13:47:48.775Z,48.47
2019-02-12T13:50:18.280Z,48.32
2019-02-12T13:52:48.095Z,47.82
2019-02-12T13:55:17.920Z,46.94
2019-02-12T13:57:48.035Z,46.61
2019-02-12T14:00:17.633Z,46.53
2019-02-12T14:02:47.478Z,46.79
2019-02-12T14:05:17.648Z,47.36
2019-02-12T14:07:47.153Z,48.72
2019-02-12T14:10:17.364Z,49.13
2019-02-12T14:12:48.449Z,49.03
2019-02-12T14:15:18.562Z,49.65
2019-02-12T14:17:48.066Z,49.62
2019-02-12T14:20:17.642Z,49.08
2019-02-12T14:22:47.462Z,48.50
2019-02-12T14:25:24.980Z,49.19
2019-02-12T14:27:48.263Z,49.46
2019-02-12T14:30:18.227Z,48.67
2019-02-12T14:32:47.755Z,47.80
2019-02-12T14:35:17.268Z,47.32
2019-02-12T14:37:46.776Z,47.27
2019-02-12T14:40:17.347Z,47.75
2019-02-12T14:42:46.852Z,48.24
2019-02-12T14:45:16.465Z,48.60
2019-02-12T14:47:45.942Z,48.29
2019-02-12T14:50:15.505Z,48.18
2019-02-12T14:52:44.985Z,48.30
2019-02-12T14:55:14.458Z,48.97
2019-02-12T14:57:44.575Z,49.67
2019-02-12T15:00:15.000Z,50.58
2019-02-12T15:02:44.890Z,50.67
2019-02-12T15:05:15.001Z,51.65
2019-02-12T15:07:45.153Z,52.01
2019-02-12T15:10:15.113Z,52.28
2019-02-12T15:12:45.151Z,52.69
2019-02-12T15:15:15.079Z,52.34
2019-02-12T15:17:45.571Z,52.39
2019-02-12T15:20:15.253Z,51.61
2019-02-12T15:22:45.202Z,51.44
2019-02-12T15:25:14.971Z,51.39
2019-02-12T15:27:45.651Z,51.69
2019-02-12T15:30:15.266Z,51.71
2019-02-12T15:32:45.252Z,51.49
2019-02-12T15:35:15.305Z,52.03
2019-02-12T15:37:45.443Z,53.26
2019-02-12T15:40:15.343Z,53.09
2019-02-12T15:42:45.361Z,53.78
2019-02-12T15:45:16.324Z,54.14
2019-02-12T15:47:45.846Z,54.85
2019-02-12T15:50:16.140Z,55.79
2019-02-12T15:52:45.998Z,55.78
2019-02-12T15:55:15.877Z,55.85
2019-02-12T15:57:46.126Z,55.94
2019-02-12T16:00:18.591Z,56.38
2019-02-12T16:02:47.557Z,57.25
2019-02-12T16:05:17.056Z,56.62
2019-02-12T16:07:47.356Z,57.36
2019-02-12T16:10:19.538Z,57.54
2019-02-12T16:12:51.267Z,57.55
2019-02-12T16:15:22.426Z,58.03
2019-02-12T16:17:51.856Z,57.87
2019-02-12T16:20:21.354Z,58.32
2019-02-12T16:22:50.868Z,58.49
2019-02-12T16:25:20.425Z,58.33
2019-02-12T16:27:50.167Z,58.42
2019-02-12T16:30:19.681Z,58.09
2019-02-12T16:32:49.260Z,58.14
2019-02-12T16:35:19.122Z,58.05
2019-02-12T16:37:48.702Z,57.87
2019-02-12T16:40:18.285Z,57.71
2019-02-12T16:42:48.124Z,57.41
2019-02-12T16:45:21.149Z,57.32
2019-02-12T16:47:50.718Z,57.37
2019-02-12T16:50:20.282Z,57.23
2019-02-12T16:52:49.908Z,56.89
2019-02-12T16:55:19.736Z,57.14
2019-02-12T16:57:49.348Z,57.27
2019-02-12T17:00:19.051Z,58.16
2019-02-12T17:02:48.747Z,58.70
2019-02-12T17:05:18.336Z,58.88
2019-02-12T17:07:47.914Z,59.19
2019-02-12T17:10:18.519Z,58.32
2019-02-12T17:12:48.137Z,59.02
2019-02-12T17:15:18.053Z,59.78
2019-02-12T17:17:48.022Z,59.57
2019-02-12T17:20:18.518Z,59.59
2019-02-12T17:22:48.117Z,59.74
2019-02-12T17:25:18.285Z,60.00
2019-02-12T17:27:48.217Z,60.14
2019-02-12T17:30:19.190Z,60.33
2019-02-12T17:32:49.822Z,60.65
2019-02-12T17:35:19.640Z,61.02
2019-02-12T17:37:49.449Z,60.70
2019-02-12T17:40:19.607Z,60.45
2019-02-12T17:42:49.566Z,60.63
2019-02-12T17:45:19.763Z,61.09
2019-02-12T17:47:49.800Z,60.99
2019-02-12T17:50:19.711Z,61.13
2019-02-12T17:52:49.394Z,61.15
2019-02-12T17:55:18.993Z,61.57
2019-02-12T17:57:49.029Z,61.51
2019-02-12T18:00:24.655Z,61.81
2019-02-12T18:02:54.761Z,61.93
2019-02-12T18:05:25.088Z,62.09
2019-02-12T18:07:54.725Z,62.35
2019-02-12T18:10:24.402Z,62.22
2019-02-12T18:12:54.612Z,62.56
2019-02-12T18:15:24.184Z,62.68
2019-02-12T18:17:54.185Z,62.73
2019-02-12T18:20:26.625Z,62.42
2019-02-12T18:22:54.928Z,62.89
2019-02-12T18:25:24.664Z,63.42
2019-02-12T18:27:54.444Z,63.67
2019-02-12T18:30:24.357Z,63.62
2019-02-12T18:32:55.202Z,63.90
2019-02-12T18:35:24.813Z,63.58
2019-02-12T18:37:54.803Z,63.25
2019-02-12T18:40:24.426Z,63.30
2019-02-12T18:42:54.033Z,63.29
2019-02-12T18:45:23.873Z,63.38
2019-02-12T18:47:53.669Z,63.56
2019-02-12T18:50:23.902Z,63.35
2019-02-12T18:52:53.817Z,63.78
2019-02-12T18:55:23.340Z,63.81
2019-02-12T18:57:52.932Z,63.81
2019-02-12T19:00:22.987Z,63.86
2019-02-12T19:02:52.673Z,63.67
2019-02-12T19:05:22.220Z,63.73
2019-02-12T19:07:51.771Z,63.64
2019-02-12T19:10:21.420Z,63.79
2019-02-12T19:12:51.031Z,63.92
2019-02-12T19:15:20.769Z,64.24
2019-02-12T19:17:54.595Z,64.33
2019-02-12T19:20:24.561Z,64.07
2019-02-12T19:22:54.403Z,64.11
2019-02-12T19:25:23.896Z,64.27
2019-02-12T19:27:53.736Z,64.36
2019-02-12T19:30:23.602Z,64.40
2019-02-12T19:32:53.660Z,64.25
2019-02-12T19:35:23.702Z,64.37
2019-02-12T19:37:53.376Z,64.17
2019-02-12T19:40:23.442Z,64.15
2019-02-12T19:42:53.425Z,64.19
2019-02-12T19:45:23.253Z,64.27
2019-02-12T19:47:53.545Z,64.51
2019-02-12T19:50:23.375Z,64.34
2019-02-12T19:52:52.937Z,64.52
2019-02-12T19:55:22.742Z,64.44
2019-02-12T19:57:52.869Z,64.67
2019-02-12T20:00:22.421Z,64.71
2019-02-12T20:02:52.394Z,64.56
2019-02-12T20:05:21.989Z,64.64
2019-02-12T20:07:51.623Z,64.71
2019-02-12T20:10:21.607Z,64.61
2019-02-12T20:12:51.871Z,64.69
2019-02-12T20:15:21.680Z,65.00
2019-02-12T20:17:51.931Z,65.00
2019-02-12T20:20:21.943Z,65.36
2019-02-12T20:22:52.100Z,65.59
2019-02-12T20:25:24.139Z,65.46
2019-02-12T20:27:53.672Z,65.23
2019-02-12T20:30:23.334Z,65.16
2019-02-12T20:32:52.889Z,65.42
2019-02-12T20:35:22.535Z,65.48
2019-02-12T20:37:52.584Z,65.18
2019-02-12T20:40:22.393Z,65.25
2019-02-12T20:42:52.049Z,65.37
2019-02-12T20:45:22.007Z,65.72
2019-02-12T20:47:51.538Z,65.56
2019-02-12T20:50:21.180Z,65.60
2019-02-12T20:52:50.763Z,65.75
2019-02-12T20:55:20.636Z,65.93
2019-02-12T20:57:50.426Z,66.00
2019-02-12T21:00:20.137Z,65.92
2019-02-12T21:02:49.966Z,65.57
2019-02-12T21:05:19.842Z,65.60
2019-02-12T21:07:49.657Z,65.56
2019-02-12T21:10:19.547Z,65.56
2019-02-12T21:12:49.303Z,65.57
2019-02-12T21:15:19.749Z,65.26
2019-02-12T21:17:49.356Z,65.64
2019-02-12T21:20:18.904Z,65.75
2019-02-12T21:22:49.301Z,65.78
2019-02-12T21:25:19.065Z,65.36
2019-02-12T21:27:49.126Z,65.11
2019-02-12T21:30:20.085Z,65.13
2019-02-12T21:32:49.815Z,65.54
2019-02-12T21:35:19.363Z,65.18
2019-02-12T21:37:49.172Z,65.15
2019-02-12T21:40:20.288Z,65.26
2019-02-12T21:42:50.518Z,64.80
2019-02-12T21:45:37.328Z,64.79
2019-02-12T21:48:06.849Z,64.88
2019-02-12T21:50:37.364Z,64.72
2019-02-12T21:53:07.353Z,64.55
2019-02-12T21:55:36.875Z,64.42
2019-02-12T21:58:06.369Z,64.70
2019-02-12T22:00:35.963Z,64.62
2019-02-12T22:03:05.635Z,65.05
2019-02-12T22:05:35.419Z,64.76
2019-02-12T22:08:04.914Z,64.30
2019-02-12T22:10:34.556Z,64.00
2019-02-12T22:13:04.087Z,64.15
2019-02-12T22:15:33.652Z,64.31
2019-02-12T22:18:03.173Z,63.99
2019-02-12T22:20:32.968Z,64.06
2019-02-12T22:23:02.497Z,63.83
2019-02-12T22:25:32.411Z,63.83
2019-02-12T22:28:01.972Z,63.48
2019-02-12T22:30:31.555Z,63.44
2019-02-12T22:33:01.060Z,63.48
2019-02-12T22:35:30.987Z,63.67
2019-02-12T22:38:00.577Z,63.75
2019-02-12T22:40:30.407Z,63.63
2019-02-12T22:43:00.502Z,63.36
2019-02-12T22:45:30.438Z,63.34
2019-02-12T22:48:00.494Z,63.48
2019-02-12T22:50:30.031Z,63.39
2019-02-12T22:52:59.810Z,63.40
2019-02-12T22:55:30.037Z,63.63
2019-02-12T22:57:59.582Z,63.48
2019-02-12T23:00:50.705Z,63.64
2019-02-12T23:03:20.522Z,63.77
2019-02-12T23:05:50.254Z,63.79
2019-02-12T23:08:20.014Z,63.96
2019-02-12T23:10:49.534Z,64.07
2019-02-12T23:13:19.511Z,64.29
2019-02-12T23:15:49.058Z,64.22
2019-02-12T23:18:18.807Z,64.30
2019-02-12T23:20:48.786Z,64.06
2019-02-12T23:23:18.391Z,64.24
2019-02-12T23:25:47.961Z,64.06
2019-02-12T23:28:17.707Z,64.10
2019-02-12T23:30:47.230Z,64.02
2019-02-12T23:33:16.717Z,64.04
2019-02-12T23:35:46.222Z,64.17
2019-02-12T23:38:16.432Z,64.17
2019-02-12T23:40:46.454Z,64.33
2019-02-12T23:43:16.566Z,64.40
2019-02-12T23:45:46.101Z,64.25
2019-02-12T23:48:15.612Z,64.45
2019-02-12T23:50:45.342Z,64.26
2019-02-12T23:53:15.096Z,64.19
2019-02-12T23:55:45.224Z,64.36
2019-02-12T23:58:14.729Z,64.24
